createdAt,value
2022-12-08T00:00:31.215Z,-19.30
2022-12-08T00:03:00.726Z,-19.29
2022-12-08T00:05:46.853Z,-19.44
2022-12-08T00:08:32.858Z,-19.29
2022-12-08T00:11:04.776Z,-20.05
2022-12-08T00:13:34.976Z,-21.07
2022-12-08T00:16:05.816Z,-19.29
2022-12-08T00:18:36.116Z,-19.76
2022-12-08T00:21:05.862Z,-19.74
2022-12-08T00:23:35.079Z,-20.79
2022-12-08T00:26:05.596Z,-19.79
2022-12-08T00:28:35.702Z,-20.33
2022-12-08T00:31:12.331Z,-19.52
2022-12-08T00:33:41.881Z,-20.02
2022-12-08T00:36:13.417Z,-20.58
2022-12-08T00:38:45.121Z,-20.23
2022-12-08T00:41:17.329Z,-20.22
2022-12-08T00:43:47.033Z,-20.36
2022-12-08T00:46:17.723Z,-19.37
2022-12-08T00:48:47.154Z,-20.57
2022-12-08T00:51:16.360Z,-19.40
2022-12-08T00:53:45.557Z,-20.46
2022-12-08T00:56:14.748Z,-20.50
2022-12-08T00:58:44.129Z,-20.39
2022-12-08T01:01:13.870Z,-19.50
2022-12-08T01:03:45.660Z,-20.77
2022-12-08T01:06:15.182Z,-19.98
2022-12-08T01:08:44.910Z,-20.97
2022-12-08T01:11:16.728Z,-19.77
2022-12-08T01:13:46.236Z,-19.64
2022-12-08T01:16:22.063Z,-19.64
2022-12-08T01:18:53.273Z,-20.53
2022-12-08T01:21:23.611Z,-20.73
2022-12-08T01:23:52.927Z,-19.99
2022-12-08T01:26:22.937Z,-19.69
2022-12-08T01:28:52.404Z,-19.69
2022-12-08T01:31:23.177Z,-19.69
2022-12-08T01:33:53.923Z,-21.16
2022-12-08T01:36:26.164Z,-20.57
2022-12-08T01:38:56.926Z,-20.63
2022-12-08T01:41:29.223Z,-19.63
2022-12-08T01:44:01.709Z,-20.64
2022-12-08T01:46:33.736Z,-20.41
2022-12-08T01:49:09.211Z,-20.88
2022-12-08T01:51:44.839Z,-20.71
2022-12-08T01:54:14.288Z,-19.52
2022-12-08T01:56:49.523Z,-19.89
2022-12-08T01:59:19.880Z,-19.49
2022-12-08T02:01:49.851Z,-20.02
2022-12-08T02:04:20.827Z,-19.46
2022-12-08T02:06:51.455Z,-19.45
2022-12-08T02:09:22.041Z,-20.43
2022-12-08T02:11:52.504Z,-19.42
2022-12-08T02:14:21.712Z,-19.57
2022-12-08T02:17:01.065Z,-19.38
2022-12-08T02:19:58.297Z,-19.37
2022-12-08T02:22:35.393Z,-19.35
2022-12-08T02:25:14.136Z,-19.32
2022-12-08T02:27:49.617Z,-19.30
2022-12-08T02:30:24.607Z,-19.29
2022-12-08T02:33:27.449Z,-19.50
2022-12-08T02:36:01.374Z,-19.25
2022-12-08T02:38:39.897Z,-19.67
2022-12-08T02:41:20.963Z,-19.17
2022-12-08T02:43:57.538Z,-19.15
2022-12-08T02:46:33.061Z,-19.76
2022-12-08T02:49:06.544Z,-19.09
2022-12-08T02:51:37.359Z,-19.10
2022-12-08T02:54:08.203Z,-19.92
2022-12-08T02:57:02.409Z,-21.02
2022-12-08T02:59:46.604Z,-19.63
2022-12-08T03:02:43.315Z,-19.07
2022-12-08T03:05:24.455Z,-19.05
2022-12-08T03:08:03.245Z,-19.42
2022-12-08T03:10:38.030Z,-19.00
2022-12-08T03:13:13.776Z,-18.97
2022-12-08T03:15:45.131Z,-18.95
2022-12-08T03:18:17.561Z,-19.14
2022-12-08T03:20:48.634Z,-18.91
2022-12-08T03:23:21.490Z,-19.98
2022-12-08T03:25:56.486Z,-18.88
2022-12-08T03:28:26.160Z,-20.04
2022-12-08T03:31:00.038Z,-19.11
2022-12-08T03:33:33.905Z,-19.21
2022-12-08T03:36:06.773Z,-18.80
2022-12-08T03:38:45.826Z,-18.76
2022-12-08T03:41:21.142Z,-18.72
2022-12-08T03:43:51.488Z,-19.81
2022-12-08T03:48:50.412Z,-18.63
2022-12-08T03:51:20.307Z,-18.98
2022-12-08T03:53:52.051Z,-18.55
2022-12-08T03:56:26.041Z,-19.01
2022-12-08T03:58:56.378Z,-19.08
2022-12-08T04:01:27.924Z,-18.78
2022-12-08T04:04:00.694Z,-18.68
2022-12-08T04:06:30.135Z,-18.78
2022-12-08T04:09:01.252Z,-18.07
2022-12-08T04:11:30.742Z,-18.96
2022-12-08T04:14:00.082Z,-18.95
2022-12-08T04:16:30.116Z,-18.06
2022-12-08T04:19:01.812Z,-17.68
2022-12-08T04:21:31.372Z,-18.07
2022-12-08T04:24:03.127Z,-17.70
2022-12-08T04:26:32.713Z,-17.52
2022-12-08T04:29:05.223Z,-17.41
2022-12-08T04:31:34.864Z,-17.30
2022-12-08T04:34:12.332Z,-17.24
2022-12-08T04:36:42.615Z,-18.45
2022-12-08T04:39:13.374Z,-17.49
2022-12-08T04:41:42.548Z,-17.23
2022-12-08T04:44:12.270Z,-17.13
2022-12-08T04:46:44.977Z,-17.01
2022-12-08T04:49:27.548Z,-17.00
2022-12-08T04:55:16.222Z,-16.83
2022-12-08T04:57:51.227Z,-18.12
2022-12-08T05:00:29.326Z,-17.32
2022-12-08T05:03:06.196Z,-16.81
2022-12-08T05:05:37.061Z,-16.81
2022-12-08T05:08:09.910Z,-16.96
2022-12-08T05:10:40.937Z,-17.37
2022-12-08T05:13:10.343Z,-17.16
2022-12-08T05:15:39.566Z,-16.94
2022-12-08T05:18:09.293Z,-16.87
2022-12-08T05:20:40.733Z,-17.72
2022-12-08T05:23:10.146Z,-17.97
2022-12-08T05:25:44.261Z,-17.06
2022-12-08T05:28:40.166Z,-16.84
2022-12-08T05:31:03.989Z,-16.83
2022-12-08T05:33:36.639Z,-16.84
2022-12-08T05:36:07.968Z,-18.10
2022-12-08T05:38:37.441Z,-16.69
2022-12-08T05:41:08.955Z,-16.67
2022-12-08T05:43:59.161Z,-18.93
2022-12-08T05:46:30.076Z,-16.66
2022-12-08T05:49:01.095Z,-16.88
2022-12-08T05:51:30.942Z,-16.74
2022-12-08T05:54:00.959Z,-16.35
2022-12-08T05:56:31.776Z,-16.34
2022-12-08T05:59:01.077Z,-16.41
2022-12-08T06:01:32.236Z,-16.73
2022-12-08T06:04:03.133Z,-16.42
2022-12-08T06:06:33.956Z,-16.34
2022-12-08T06:09:04.859Z,-16.30
2022-12-08T06:11:36.608Z,-16.64
2022-12-08T06:14:06.431Z,-17.13
2022-12-08T06:16:37.024Z,-16.99
2022-12-08T06:19:06.340Z,-16.61
2022-12-08T06:21:35.569Z,-17.06
2022-12-08T06:24:05.205Z,-16.32
2022-12-08T06:26:36.837Z,-16.18
2022-12-08T06:29:07.034Z,-17.37
2022-12-08T06:31:36.195Z,-16.08
2022-12-08T06:34:06.566Z,-16.00
2022-12-08T06:36:38.814Z,-15.96
2022-12-08T06:39:09.054Z,-16.21
2022-12-08T06:41:59.766Z,-15.91
2022-12-08T06:44:29.040Z,-16.45
2022-12-08T06:46:58.193Z,-15.88
2022-12-08T06:49:27.327Z,-15.92
2022-12-08T06:51:56.562Z,-15.81
2022-12-08T06:54:25.954Z,-16.09
2022-12-08T06:56:59.344Z,-15.88
2022-12-08T06:59:28.551Z,-15.83
2022-12-08T07:01:57.788Z,-15.75
2022-12-08T07:04:27.925Z,-15.77
2022-12-08T07:06:57.060Z,-15.81
2022-12-08T07:09:26.549Z,-16.15
2022-12-08T07:11:57.247Z,-15.85
2022-12-08T07:14:26.568Z,-15.96
2022-12-08T07:16:55.832Z,-15.87
2022-12-08T07:19:26.043Z,-15.86
2022-12-08T07:21:55.335Z,-15.86
2022-12-08T07:24:24.722Z,-16.22
2022-12-08T07:27:03.346Z,-15.95
2022-12-08T07:29:34.368Z,-15.85
2022-12-08T07:32:03.808Z,-15.98
2022-12-08T07:34:34.179Z,-15.87
2022-12-08T07:37:06.205Z,-15.96
2022-12-08T07:39:35.579Z,-16.87
2022-12-08T07:42:05.177Z,-15.86
2022-12-08T07:44:36.408Z,-17.37
2022-12-08T07:47:05.934Z,-15.89
2022-12-08T07:49:35.492Z,-15.81
2022-12-08T07:52:07.446Z,-15.93
2022-12-08T07:54:40.807Z,-15.87
2022-12-08T07:57:11.844Z,-16.71
2022-12-08T07:59:45.862Z,-16.55
2022-12-08T08:02:26.912Z,-16.12
2022-12-08T08:04:56.454Z,-16.49
2022-12-08T08:07:25.736Z,-15.94
2022-12-08T08:09:55.179Z,-16.39
2022-12-08T08:12:32.536Z,-17.11
2022-12-08T08:15:05.461Z,-16.88
2022-12-08T08:17:35.414Z,-16.03
2022-12-08T08:20:07.476Z,-16.06
2022-12-08T08:22:37.290Z,-16.09
2022-12-08T08:25:08.263Z,-16.42
2022-12-08T08:27:37.561Z,-16.15
2022-12-08T08:30:15.340Z,-16.35
2022-12-08T08:32:47.526Z,-16.23
2022-12-08T08:35:17.090Z,-16.27
2022-12-08T08:37:49.077Z,-16.41
2022-12-08T08:40:19.425Z,-16.33
2022-12-08T08:42:48.595Z,-16.38
2022-12-08T08:45:27.247Z,-16.77
2022-12-08T08:47:56.501Z,-16.65
2022-12-08T08:50:26.120Z,-16.52
2022-12-08T08:52:55.236Z,-16.99
2022-12-08T08:55:25.361Z,-17.10
2022-12-08T08:57:54.597Z,-16.77
2022-12-08T09:00:25.759Z,-16.90
2022-12-08T09:02:55.032Z,-17.21
2022-12-08T09:05:24.228Z,-17.06
2022-12-08T09:07:53.523Z,-16.93
2022-12-08T09:10:22.861Z,-16.90
2022-12-08T09:12:52.470Z,-17.14
2022-12-08T09:15:21.781Z,-16.97
2022-12-08T09:17:52.402Z,-17.12
2022-12-08T09:20:21.699Z,-17.16
2022-12-08T09:22:50.795Z,-17.07
2022-12-08T09:25:21.162Z,-17.16
2022-12-08T09:27:50.449Z,-17.15
2022-12-08T09:30:21.020Z,-17.50
2022-12-08T09:32:50.171Z,-17.71
2022-12-08T09:35:20.789Z,-17.29
2022-12-08T09:37:51.124Z,-17.34
2022-12-08T09:40:50.583Z,-17.83
2022-12-08T09:43:39.173Z,-17.48
2022-12-08T09:46:12.387Z,-17.52
2022-12-08T09:48:46.938Z,-17.86
2022-12-08T09:51:20.764Z,-17.54
2022-12-08T09:53:54.176Z,-17.99
2022-12-08T09:56:33.462Z,-17.69
2022-12-08T09:59:19.660Z,-17.57
2022-12-08T10:01:49.081Z,-17.57
2022-12-08T10:04:26.536Z,-17.58
2022-12-08T10:07:06.513Z,-17.96
2022-12-08T10:09:43.897Z,-18.24
2022-12-08T10:12:30.008Z,-17.89
2022-12-08T10:15:32.275Z,-17.36
2022-12-08T10:18:09.665Z,-17.30
2022-12-08T10:20:41.998Z,-17.51
2022-12-08T10:23:25.275Z,-17.80
2022-12-08T10:26:01.472Z,-17.97
2022-12-08T10:28:46.640Z,-17.84
2022-12-08T10:31:23.354Z,-18.08
2022-12-08T10:33:59.695Z,-17.03
2022-12-08T10:36:47.083Z,-17.25
2022-12-08T10:39:40.702Z,-17.01
2022-12-08T10:45:36.598Z,-17.03
2022-12-08T10:48:09.067Z,-17.05
2022-12-08T10:50:43.981Z,-17.09
2022-12-08T10:56:19.604Z,-17.18
2022-12-08T10:58:50.402Z,-17.58
2022-12-08T11:01:35.799Z,-17.98
2022-12-08T11:04:08.256Z,-18.48
2022-12-08T11:06:39.261Z,-18.14
2022-12-08T11:09:27.800Z,-17.52
2022-12-08T11:12:07.719Z,-18.03
2022-12-08T11:14:51.524Z,-17.63
2022-12-08T11:17:28.298Z,-17.66
2022-12-08T11:20:02.038Z,-17.67
2022-12-08T11:22:34.914Z,-18.03
2022-12-08T11:25:12.529Z,-19.02
2022-12-08T11:27:47.454Z,-19.89
2022-12-08T11:30:20.935Z,-18.03
2022-12-08T11:33:01.743Z,-18.64
2022-12-08T11:35:37.622Z,-18.77
2022-12-08T11:38:28.993Z,-18.11
2022-12-08T11:41:04.521Z,-17.57
2022-12-08T11:43:56.149Z,-17.52
2022-12-08T11:46:34.754Z,-18.05
2022-12-08T11:49:22.433Z,-17.44
2022-12-08T11:52:02.637Z,-17.42
2022-12-08T11:54:37.317Z,-19.51
2022-12-08T11:57:31.726Z,-17.30
2022-12-08T12:00:07.896Z,-17.86
2022-12-08T12:02:46.210Z,-18.09
2022-12-08T12:05:47.633Z,-18.71
2022-12-08T12:08:33.676Z,-17.15
2022-12-08T12:11:38.430Z,-17.65
2022-12-08T12:14:17.349Z,-17.10
2022-12-08T12:17:01.995Z,-17.10
2022-12-08T12:19:38.222Z,-17.11
2022-12-08T12:22:27.639Z,-17.09
2022-12-08T12:24:57.262Z,-18.88
2022-12-08T12:27:32.958Z,-18.30
2022-12-08T12:30:24.361Z,-17.13
2022-12-08T12:33:04.480Z,-18.05
2022-12-08T12:35:38.441Z,-17.48
2022-12-08T12:38:32.150Z,-17.93
2022-12-08T12:41:04.196Z,-17.26
2022-12-08T12:43:42.430Z,-17.79
2022-12-08T12:46:58.507Z,-17.30
2022-12-08T12:50:11.779Z,-17.32
2022-12-08T12:52:50.820Z,-17.47
2022-12-08T12:55:53.064Z,-17.69
2022-12-08T12:58:43.136Z,-17.59
2022-12-08T13:01:54.665Z,-17.37
2022-12-08T13:04:34.292Z,-17.55
2022-12-08T13:07:05.806Z,-17.42
2022-12-08T13:09:39.685Z,-18.17
2022-12-08T13:12:14.519Z,-17.68
2022-12-08T13:14:49.238Z,-17.60
2022-12-08T13:17:30.923Z,-17.96
2022-12-08T13:20:03.174Z,-18.18
2022-12-08T13:23:04.311Z,-17.82
2022-12-08T13:25:51.662Z,-17.90
2022-12-08T13:28:27.491Z,-17.98
2022-12-08T13:30:58.508Z,-18.32
2022-12-08T13:33:37.626Z,-18.11
2022-12-08T13:36:24.102Z,-18.15
2022-12-08T13:38:58.462Z,-18.45
2022-12-08T13:41:35.205Z,-18.62
2022-12-08T13:45:03.588Z,-19.16
2022-12-08T13:58:41.598Z,-18.60
2022-12-08T14:01:17.259Z,-18.95
2022-12-08T14:04:21.719Z,-18.47
2022-12-08T14:06:45.331Z,-19.39
2022-12-08T14:09:18.234Z,-18.56
2022-12-08T14:11:53.872Z,-18.71
2022-12-08T14:14:53.776Z,-18.55
2022-12-08T14:17:16.298Z,-18.58
2022-12-08T14:19:54.148Z,-18.59
2022-12-08T14:22:24.683Z,-19.13
2022-12-08T14:24:55.512Z,-18.59
2022-12-08T14:27:29.417Z,-18.91
2022-12-08T14:30:00.289Z,-18.58
2022-12-08T14:32:32.092Z,-18.89
2022-12-08T14:35:04.595Z,-18.80
2022-12-08T14:37:35.810Z,-19.66
2022-12-08T14:40:10.177Z,-18.84
2022-12-08T14:42:49.122Z,-18.61
2022-12-08T14:45:21.143Z,-18.69
2022-12-08T14:47:51.596Z,-18.83
2022-12-08T14:50:42.261Z,-18.71
2022-12-08T14:53:16.819Z,-18.66
2022-12-08T14:55:48.058Z,-19.03
2022-12-08T14:58:28.289Z,-18.78
2022-12-08T15:01:00.163Z,-18.75
2022-12-08T15:03:32.304Z,-18.88
2022-12-08T15:06:06.611Z,-19.10
2022-12-08T15:08:37.007Z,-19.42
2022-12-08T15:11:31.848Z,-19.08
2022-12-08T15:14:02.834Z,-19.99
2022-12-08T15:16:40.758Z,-18.88
2022-12-08T15:19:30.200Z,-18.90
2022-12-08T15:22:01.543Z,-19.25
2022-12-08T15:24:32.479Z,-18.97
2022-12-08T15:27:01.683Z,-19.23
2022-12-08T15:29:33.119Z,-18.99
2022-12-08T15:32:03.773Z,-19.92
2022-12-08T15:34:34.194Z,-19.03
2022-12-08T15:37:05.642Z,-19.42
2022-12-08T15:39:36.390Z,-19.07
2022-12-08T15:42:12.753Z,-19.07
2022-12-08T15:44:43.889Z,-19.11
2022-12-08T15:47:18.573Z,-19.15
2022-12-08T15:49:48.655Z,-19.18
2022-12-08T15:52:19.029Z,-20.05
2022-12-08T15:54:49.480Z,-19.45
2022-12-08T15:58:04.061Z,-19.25
2022-12-08T16:00:51.645Z,-20.08
2022-12-08T16:03:59.742Z,-19.23
2022-12-08T16:07:04.716Z,-20.56
2022-12-08T16:09:12.700Z,-19.29
2022-12-08T16:12:08.771Z,-20.17
2022-12-08T16:17:36.419Z,-20.32
2022-12-08T16:20:07.462Z,-19.96
2022-12-08T16:22:56.882Z,-19.71
2022-12-08T16:25:28.756Z,-20.44
2022-12-08T16:28:23.301Z,-19.76
2022-12-08T16:30:52.188Z,-19.87
2022-12-08T16:33:48.256Z,-19.44
2022-12-08T16:36:17.454Z,-20.31
2022-12-08T16:38:59.860Z,-19.48
2022-12-08T16:41:46.130Z,-19.73
2022-12-08T16:44:15.689Z,-19.45
2022-12-08T16:46:46.274Z,-19.45
2022-12-08T16:49:21.059Z,-19.47
2022-12-08T16:51:50.319Z,-20.42
2022-12-08T16:54:20.773Z,-19.45
2022-12-08T16:56:53.033Z,-19.46
2022-12-08T16:59:23.282Z,-20.47
2022-12-08T17:01:52.493Z,-19.84
2022-12-08T17:04:31.387Z,-20.54
2022-12-08T17:07:02.481Z,-19.57
2022-12-08T17:09:34.104Z,-19.61
2022-12-08T17:12:06.447Z,-19.63
2022-12-08T17:14:36.802Z,-19.65
2022-12-08T17:17:06.575Z,-20.15
2022-12-08T17:19:37.482Z,-19.68
2022-12-08T17:22:06.728Z,-19.88
2022-12-08T17:24:36.011Z,-19.69
2022-12-08T17:27:06.833Z,-19.69
2022-12-08T17:29:36.792Z,-19.70
2022-12-08T17:32:06.290Z,-19.90
2022-12-08T17:34:36.948Z,-20.81
2022-12-08T17:37:06.148Z,-20.60
2022-12-08T17:39:35.236Z,-20.54
2022-12-08T17:42:04.553Z,-20.34
2022-12-08T17:44:35.701Z,-19.79
2022-12-08T17:47:05.806Z,-20.15
2022-12-08T17:49:36.592Z,-19.77
2022-12-08T17:52:08.535Z,-20.05
2022-12-08T17:54:37.797Z,-19.78
2022-12-08T17:57:07.331Z,-20.67
2022-12-08T17:59:36.520Z,-20.08
2022-12-08T18:02:06.078Z,-19.80
2022-12-08T18:04:36.865Z,-19.82
2022-12-08T18:07:06.149Z,-21.54
2022-12-08T18:09:35.438Z,-20.46
2022-12-08T18:12:04.670Z,-20.77
2022-12-08T18:14:34.007Z,-20.23
2022-12-08T18:17:03.442Z,-20.67
2022-12-08T18:19:32.797Z,-21.33
2022-12-08T18:22:04.489Z,-20.33
2022-12-08T18:24:33.698Z,-20.94
2022-12-08T18:27:02.825Z,-19.92
2022-12-08T18:29:32.109Z,-20.47
2022-12-08T18:32:01.337Z,-20.43
2022-12-08T18:34:30.543Z,-19.97
2022-12-08T18:36:59.830Z,-19.96
2022-12-08T18:39:31.953Z,-20.33
2022-12-08T18:42:03.071Z,-19.99
2022-12-08T18:44:33.213Z,-20.02
2022-12-08T18:47:02.381Z,-20.03
2022-12-08T18:49:31.493Z,-20.97
2022-12-08T18:52:01.629Z,-20.03
2022-12-08T18:54:58.073Z,-21.09
2022-12-08T18:57:21.459Z,-21.02
2022-12-08T18:59:50.753Z,-20.05
2022-12-08T19:02:20.249Z,-20.89
2022-12-08T19:04:49.506Z,-21.21
2022-12-08T19:07:19.053Z,-20.74
2022-12-08T19:09:49.677Z,-20.02
2022-12-08T19:12:19.079Z,-20.69
2022-12-08T19:14:48.364Z,-19.99
2022-12-08T19:17:17.710Z,-20.35
2022-12-08T19:19:46.900Z,-19.97
2022-12-08T19:22:16.164Z,-21.12
2022-12-08T19:24:45.568Z,-20.74
2022-12-08T19:27:16.164Z,-20.38
2022-12-08T19:29:45.432Z,-20.70
2022-12-08T19:32:14.706Z,-20.41
2022-12-08T19:34:44.021Z,-20.74
2022-12-08T19:37:13.454Z,-21.15
2022-12-08T19:39:59.887Z,-20.82
2022-12-08T19:42:47.697Z,-20.08
2022-12-08T19:45:20.267Z,-20.10
2022-12-08T19:47:50.167Z,-21.08
2022-12-08T19:50:36.648Z,-21.03
2022-12-08T19:53:07.164Z,-20.13
2022-12-08T19:55:36.843Z,-20.12
2022-12-08T19:58:08.406Z,-21.29
2022-12-08T20:00:39.683Z,-21.11
2022-12-08T20:03:09.305Z,-21.67
2022-12-08T20:05:38.964Z,-21.18
2022-12-08T20:08:08.368Z,-20.81
2022-12-08T20:10:39.799Z,-20.62
2022-12-08T20:13:28.434Z,-20.19
2022-12-08T20:15:57.978Z,-20.22
2022-12-08T20:18:28.969Z,-21.06
2022-12-08T20:20:58.651Z,-21.31
2022-12-08T20:23:27.893Z,-21.25
2022-12-08T20:25:57.124Z,-20.27
2022-12-08T20:28:27.870Z,-20.65
2022-12-08T20:30:57.182Z,-20.26
2022-12-08T20:33:54.873Z,-20.68
2022-12-08T20:36:26.224Z,-20.95
2022-12-08T20:38:57.433Z,-20.95
2022-12-08T20:41:26.930Z,-21.02
2022-12-08T20:44:08.135Z,-20.55
2022-12-08T20:46:37.626Z,-20.34
2022-12-08T20:49:09.884Z,-21.18
2022-12-08T20:51:39.157Z,-20.35
2022-12-08T20:54:22.652Z,-20.78
2022-12-08T20:56:51.995Z,-20.35
2022-12-08T20:59:22.991Z,-20.69
2022-12-08T21:01:54.893Z,-20.36
2022-12-08T21:04:24.731Z,-21.18
2022-12-08T21:06:54.220Z,-20.35
2022-12-08T21:09:23.652Z,-20.36
2022-12-08T21:11:53.124Z,-20.37
2022-12-08T21:14:23.911Z,-20.64
2022-12-08T21:16:54.877Z,-20.77
2022-12-08T21:19:24.414Z,-21.81
2022-12-08T21:21:53.828Z,-20.77
2022-12-08T21:24:23.142Z,-21.10
2022-12-08T21:26:52.442Z,-20.37
2022-12-08T21:29:23.128Z,-20.36
2022-12-08T21:31:52.468Z,-21.37
2022-12-08T21:34:21.838Z,-20.36
2022-12-08T21:36:51.077Z,-21.25
2022-12-08T21:39:20.504Z,-21.78
2022-12-08T21:42:15.339Z,-21.82
2022-12-08T21:44:46.153Z,-20.36
2022-12-08T21:47:16.434Z,-21.27
2022-12-08T21:49:45.694Z,-20.39
2022-12-08T21:52:15.149Z,-21.14
2022-12-08T21:54:44.354Z,-21.92
2022-12-08T21:57:13.876Z,-21.34
2022-12-08T21:59:43.487Z,-20.37
2022-12-08T22:02:20.778Z,-21.23
2022-12-08T22:04:58.784Z,-20.61
2022-12-08T22:07:28.042Z,-21.36
2022-12-08T22:09:57.220Z,-20.37
2022-12-08T22:12:26.466Z,-21.08
2022-12-08T22:14:55.717Z,-20.39
2022-12-08T22:17:26.735Z,-20.67
2022-12-08T22:19:56.015Z,-20.45
2022-12-08T22:22:25.306Z,-20.96
2022-12-08T22:24:55.489Z,-21.84
2022-12-08T22:27:24.763Z,-21.23
2022-12-08T22:29:55.579Z,-20.74
2022-12-08T22:32:26.525Z,-21.27
2022-12-08T22:34:55.768Z,-21.19
2022-12-08T22:37:25.190Z,-21.07
2022-12-08T22:39:54.466Z,-20.43
2022-12-08T22:42:23.602Z,-20.94
2022-12-08T22:44:52.720Z,-20.42
2022-12-08T22:47:21.934Z,-20.49
2022-12-08T22:49:52.546Z,-21.42
2022-12-08T22:52:21.811Z,-20.39
2022-12-08T22:54:51.257Z,-21.41
2022-12-08T22:57:20.709Z,-21.44
2022-12-08T22:59:49.849Z,-20.32
2022-12-08T23:02:19.252Z,-20.31
2022-12-08T23:04:48.737Z,-21.16
2022-12-08T23:07:22.956Z,-22.05
2022-12-08T23:09:52.824Z,-20.29
2022-12-08T23:12:22.021Z,-20.70
2022-12-08T23:14:51.181Z,-21.30
2022-12-08T23:17:21.498Z,-21.67
2022-12-08T23:19:50.958Z,-21.25
2022-12-08T23:22:22.992Z,-21.46
2022-12-08T23:24:52.297Z,-21.32
2022-12-08T23:27:21.506Z,-20.64
2022-12-08T23:29:50.714Z,-21.14
2022-12-08T23:32:20.011Z,-21.22
2022-12-08T23:34:49.510Z,-20.82
2022-12-08T23:37:18.753Z,-21.50
2022-12-08T23:39:49.418Z,-20.29
2022-12-08T23:42:18.638Z,-21.10
2022-12-08T23:44:47.843Z,-20.90
2022-12-08T23:47:17.223Z,-20.29
2022-12-08T23:49:46.648Z,-21.24
2022-12-08T23:52:16.216Z,-21.56
2022-12-08T23:54:45.611Z,-20.58
2022-12-08T23:57:16.384Z,-21.56
2022-12-08T23:59:45.699Z,-20.53
